sensor_id;sensor_type;location;lat;lon;timestamp;temperature;humidity
32476;DHT22;18929;48.008;10.882;2024-02-26T00:00:22;5.00;99.90
32476;DHT22;18929;48.008;10.882;2024-02-26T00:02:50;5.20;99.90
32476;DHT22;18929;48.008;10.882;2024-02-26T00:05:16;3.80;99.90
32476;DHT22;18929;48.008;10.882;2024-02-26T00:07:45;3.80;99.90
32476;DHT22;18929;48.008;10.882;2024-02-26T00:10:12;4.70;99.90
32476;DHT22;18929;48.008;10.882;2024-02-26T00:12:40;4.00;99.90
32476;DHT22;18929;48.008;10.882;2024-02-26T00:15:21;5.00;99.90
32476;DHT22;18929;48.008;10.882;2024-02-26T00:17:48;5.00;99.90
32476;DHT22;18929;48.008;10.882;2024-02-26T00:20:15;5.20;99.90
32476;DHT22;18929;48.008;10.882;2024-02-26T00:22:42;5.70;99.90
32476;DHT22;18929;48.008;10.882;2024-02-26T00:25:10;5.90;99.90
32476;DHT22;18929;48.008;10.882;2024-02-26T00:27:38;6.10;99.90
32476;DHT22;18929;48.008;10.882;2024-02-26T00:30:06;5.30;99.90
32476;DHT22;18929;48.008;10.882;2024-02-26T00:32:33;5.90;99.90
32476;DHT22;18929;48.008;10.882;2024-02-26T00:35:00;5.90;99.90
32476;DHT22;18929;48.008;10.882;2024-02-26T00:37:27;6.00;99.90
32476;DHT22;18929;48.008;10.882;2024-02-26T00:39:54;5.70;99.90
32476;DHT22;18929;48.008;10.882;2024-02-26T00:42:22;6.00;99.90
32476;DHT22;18929;48.008;10.882;2024-02-26T00:47:21;6.30;99.90
32476;DHT22;18929;48.008;10.882;2024-02-26T00:49:48;6.30;99.90
32476;DHT22;18929;48.008;10.882;2024-02-26T00:52:15;6.30;99.90
32476;DHT22;18929;48.008;10.882;2024-02-26T00:54:42;6.40;99.90
32476;DHT22;18929;48.008;10.882;2024-02-26T00:57:09;6.30;99.90
32476;DHT22;18929;48.008;10.882;2024-02-26T00:59:38;6.20;99.90
32476;DHT22;18929;48.008;10.882;2024-02-26T01:02:05;6.20;99.90
32476;DHT22;18929;48.008;10.882;2024-02-26T01:04:32;6.20;99.90
32476;DHT22;18929;48.008;10.882;2024-02-26T01:06:59;6.20;99.90
32476;DHT22;18929;48.008;10.882;2024-02-26T01:09:26;6.30;99.90
32476;DHT22;18929;48.008;10.882;2024-02-26T01:11:53;6.20;99.90
32476;DHT22;18929;48.008;10.882;2024-02-26T01:14:20;6.20;99.90
32476;DHT22;18929;48.008;10.882;2024-02-26T01:16:48;6.20;99.90
32476;DHT22;18929;48.008;10.882;2024-02-26T01:19:15;6.10;99.90
32476;DHT22;18929;48.008;10.882;2024-02-26T01:21:42;6.10;99.90
32476;DHT22;18929;48.008;10.882;2024-02-26T01:24:09;6.10;99.90
32476;DHT22;18929;48.008;10.882;2024-02-26T01:26:36;6.20;99.90
32476;DHT22;18929;48.008;10.882;2024-02-26T01:29:03;6.20;99.90
32476;DHT22;18929;48.008;10.882;2024-02-26T01:31:30;6.20;99.90
32476;DHT22;18929;48.008;10.882;2024-02-26T01:33:58;6.10;99.90
32476;DHT22;18929;48.008;10.882;2024-02-26T01:36:25;6.00;99.90
32476;DHT22;18929;48.008;10.882;2024-02-26T01:38:52;5.70;99.90
32476;DHT22;18929;48.008;10.882;2024-02-26T01:41:20;5.10;99.90
32476;DHT22;18929;48.008;10.882;2024-02-26T01:43:47;5.50;99.90
32476;DHT22;18929;48.008;10.882;2024-02-26T01:46:14;5.80;99.90
32476;DHT22;18929;48.008;10.882;2024-02-26T01:48:41;5.70;99.90
32476;DHT22;18929;48.008;10.882;2024-02-26T01:51:10;5.70;99.90
32476;DHT22;18929;48.008;10.882;2024-02-26T01:53:37;5.60;99.90
32476;DHT22;18929;48.008;10.882;2024-02-26T01:56:05;5.70;99.90
32476;DHT22;18929;48.008;10.882;2024-02-26T01:58:32;5.70;99.90
32476;DHT22;18929;48.008;10.882;2024-02-26T02:00:59;5.80;99.90
32476;DHT22;18929;48.008;10.882;2024-02-26T02:03:26;5.70;99.90
32476;DHT22;18929;48.008;10.882;2024-02-26T02:05:53;5.90;99.90
32476;DHT22;18929;48.008;10.882;2024-02-26T02:08:21;5.90;99.90
32476;DHT22;18929;48.008;10.882;2024-02-26T02:13:43;5.80;99.90
32476;DHT22;18929;48.008;10.882;2024-02-26T02:16:10;5.80;99.90
32476;DHT22;18929;48.008;10.882;2024-02-26T02:18:37;5.20;99.90
32476;DHT22;18929;48.008;10.882;2024-02-26T02:21:05;5.40;99.90
32476;DHT22;18929;48.008;10.882;2024-02-26T02:23:32;5.40;99.90
32476;DHT22;18929;48.008;10.882;2024-02-26T02:25:59;5.50;99.90
32476;DHT22;18929;48.008;10.882;2024-02-26T02:28:26;5.40;99.90
32476;DHT22;18929;48.008;10.882;2024-02-26T02:30:54;5.50;99.90
32476;DHT22;18929;48.008;10.882;2024-02-26T02:33:21;5.50;99.90
32476;DHT22;18929;48.008;10.882;2024-02-26T02:35:48;5.50;99.90
32476;DHT22;18929;48.008;10.882;2024-02-26T02:38:17;5.60;99.90
32476;DHT22;18929;48.008;10.882;2024-02-26T02:40:44;5.50;99.90
32476;DHT22;18929;48.008;10.882;2024-02-26T02:43:11;5.20;99.90
32476;DHT22;18929;48.008;10.882;2024-02-26T02:45:38;5.50;99.90
32476;DHT22;18929;48.008;10.882;2024-02-26T02:48:05;5.40;99.90
32476;DHT22;18929;48.008;10.882;2024-02-26T02:50:32;4.30;99.90
32476;DHT22;18929;48.008;10.882;2024-02-26T02:52:58;4.80;99.90
32476;DHT22;18929;48.008;10.882;2024-02-26T02:55:27;4.60;99.90
32476;DHT22;18929;48.008;10.882;2024-02-26T02:57:54;5.00;99.90
32476;DHT22;18929;48.008;10.882;2024-02-26T03:00:20;5.30;99.90
32476;DHT22;18929;48.008;10.882;2024-02-26T03:03:06;5.50;99.90
32476;DHT22;18929;48.008;10.882;2024-02-26T03:05:33;5.00;99.90
32476;DHT22;18929;48.008;10.882;2024-02-26T03:08:00;5.30;99.90
32476;DHT22;18929;48.008;10.882;2024-02-26T03:10:29;5.00;99.90
32476;DHT22;18929;48.008;10.882;2024-02-26T03:12:55;5.10;99.90
32476;DHT22;18929;48.008;10.882;2024-02-26T03:15:23;5.40;99.90
32476;DHT22;18929;48.008;10.882;2024-02-26T03:17:50;4.70;99.90
32476;DHT22;18929;48.008;10.882;2024-02-26T03:20:16;4.90;99.90
32476;DHT22;18929;48.008;10.882;2024-02-26T03:22:44;5.30;99.90
32476;DHT22;18929;48.008;10.882;2024-02-26T03:25:12;5.40;99.90
32476;DHT22;18929;48.008;10.882;2024-02-26T03:27:40;5.50;99.90
32476;DHT22;18929;48.008;10.882;2024-02-26T03:30:07;5.60;99.90
32476;DHT22;18929;48.008;10.882;2024-02-26T03:32:34;5.60;99.90
32476;DHT22;18929;48.008;10.882;2024-02-26T03:35:01;5.50;99.90
32476;DHT22;18929;48.008;10.882;2024-02-26T03:37:28;5.50;99.90
32476;DHT22;18929;48.008;10.882;2024-02-26T03:39:54;5.50;99.90
32476;DHT22;18929;48.008;10.882;2024-02-26T03:42:22;5.60;99.90
32476;DHT22;18929;48.008;10.882;2024-02-26T03:44:51;5.60;99.90
32476;DHT22;18929;48.008;10.882;2024-02-26T03:47:18;5.40;99.90
32476;DHT22;18929;48.008;10.882;2024-02-26T03:49:44;5.50;99.90
32476;DHT22;18929;48.008;10.882;2024-02-26T03:52:11;5.70;99.90
32476;DHT22;18929;48.008;10.882;2024-02-26T03:54:38;5.60;99.90
32476;DHT22;18929;48.008;10.882;2024-02-26T03:57:05;5.60;99.90
32476;DHT22;18929;48.008;10.882;2024-02-26T03:59:32;5.50;99.90
32476;DHT22;18929;48.008;10.882;2024-02-26T04:02:00;5.40;99.90
32476;DHT22;18929;48.008;10.882;2024-02-26T04:04:28;5.60;99.90
32476;DHT22;18929;48.008;10.882;2024-02-26T04:06:55;4.90;99.90
32476;DHT22;18929;48.008;10.882;2024-02-26T04:09:22;5.20;99.90
32476;DHT22;18929;48.008;10.882;2024-02-26T04:11:49;5.30;99.90
32476;DHT22;18929;48.008;10.882;2024-02-26T04:14:16;4.70;99.90
32476;DHT22;18929;48.008;10.882;2024-02-26T04:16:43;4.90;99.90
32476;DHT22;18929;48.008;10.882;2024-02-26T04:19:11;5.10;99.90
32476;DHT22;18929;48.008;10.882;2024-02-26T04:21:40;5.00;99.90
32476;DHT22;18929;48.008;10.882;2024-02-26T04:24:07;5.20;99.90
32476;DHT22;18929;48.008;10.882;2024-02-26T04:26:34;5.00;99.90
32476;DHT22;18929;48.008;10.882;2024-02-26T04:29:01;5.20;99.90
32476;DHT22;18929;48.008;10.882;2024-02-26T04:31:28;5.20;99.90
32476;DHT22;18929;48.008;10.882;2024-02-26T04:33:57;5.10;99.90
32476;DHT22;18929;48.008;10.882;2024-02-26T04:36:25;5.40;99.90
32476;DHT22;18929;48.008;10.882;2024-02-26T04:38:52;5.40;99.90
32476;DHT22;18929;48.008;10.882;2024-02-26T04:41:20;5.20;99.90
32476;DHT22;18929;48.008;10.882;2024-02-26T04:43:46;5.40;99.90
32476;DHT22;18929;48.008;10.882;2024-02-26T04:46:13;4.90;99.90
32476;DHT22;18929;48.008;10.882;2024-02-26T04:48:40;4.30;99.90
32476;DHT22;18929;48.008;10.882;2024-02-26T04:51:08;4.50;99.90
32476;DHT22;18929;48.008;10.882;2024-02-26T04:53:36;4.70;99.90
32476;DHT22;18929;48.008;10.882;2024-02-26T04:56:04;4.80;99.90
32476;DHT22;18929;48.008;10.882;2024-02-26T04:58:31;4.90;99.90
32476;DHT22;18929;48.008;10.882;2024-02-26T05:00:57;4.70;99.90
32476;DHT22;18929;48.008;10.882;2024-02-26T05:03:24;5.00;99.90
32476;DHT22;18929;48.008;10.882;2024-02-26T05:05:52;5.00;99.90
32476;DHT22;18929;48.008;10.882;2024-02-26T05:10:57;5.00;99.90
32476;DHT22;18929;48.008;10.882;2024-02-26T05:13:26;4.30;99.90
32476;DHT22;18929;48.008;10.882;2024-02-26T05:15:52;4.60;99.90
32476;DHT22;18929;48.008;10.882;2024-02-26T05:18:19;5.00;99.90
32476;DHT22;18929;48.008;10.882;2024-02-26T05:20:46;4.90;99.90
32476;DHT22;18929;48.008;10.882;2024-02-26T05:23:13;4.70;99.90
32476;DHT22;18929;48.008;10.882;2024-02-26T05:25:40;4.40;99.90
32476;DHT22;18929;48.008;10.882;2024-02-26T05:28:09;4.00;99.90
32476;DHT22;18929;48.008;10.882;2024-02-26T05:30:36;4.30;99.90
32476;DHT22;18929;48.008;10.882;2024-02-26T05:33:05;4.80;99.90
32476;DHT22;18929;48.008;10.882;2024-02-26T05:35:32;5.00;99.90
32476;DHT22;18929;48.008;10.882;2024-02-26T05:38:12;5.10;99.90
32476;DHT22;18929;48.008;10.882;2024-02-26T05:40:39;5.10;99.90
32476;DHT22;18929;48.008;10.882;2024-02-26T05:43:06;5.50;99.90
32476;DHT22;18929;48.008;10.882;2024-02-26T05:45:34;5.60;99.90
32476;DHT22;18929;48.008;10.882;2024-02-26T05:48:01;5.50;99.90
32476;DHT22;18929;48.008;10.882;2024-02-26T05:50:28;5.10;99.90
32476;DHT22;18929;48.008;10.882;2024-02-26T05:52:55;5.20;99.90
32476;DHT22;18929;48.008;10.882;2024-02-26T05:55:22;5.00;99.90
32476;DHT22;18929;48.008;10.882;2024-02-26T05:57:49;4.80;99.90
32476;DHT22;18929;48.008;10.882;2024-02-26T06:00:16;5.10;99.90
32476;DHT22;18929;48.008;10.882;2024-02-26T06:02:45;5.10;99.90
32476;DHT22;18929;48.008;10.882;2024-02-26T06:05:12;5.10;99.90
32476;DHT22;18929;48.008;10.882;2024-02-26T06:07:39;5.30;99.90
32476;DHT22;18929;48.008;10.882;2024-02-26T06:10:06;5.50;99.90
32476;DHT22;18929;48.008;10.882;2024-02-26T06:12:35;5.50;99.90
32476;DHT22;18929;48.008;10.882;2024-02-26T06:15:02;5.30;99.90
32476;DHT22;18929;48.008;10.882;2024-02-26T06:17:29;5.20;99.90
32476;DHT22;18929;48.008;10.882;2024-02-26T06:19:58;4.70;99.90
32476;DHT22;18929;48.008;10.882;2024-02-26T06:22:25;4.50;99.90
32476;DHT22;18929;48.008;10.882;2024-02-26T06:24:52;4.80;99.90
32476;DHT22;18929;48.008;10.882;2024-02-26T06:27:19;4.60;99.90
32476;DHT22;18929;48.008;10.882;2024-02-26T06:29:47;4.00;99.90
32476;DHT22;18929;48.008;10.882;2024-02-26T06:32:17;3.70;99.90
32476;DHT22;18929;48.008;10.882;2024-02-26T06:34:43;4.30;99.90
32476;DHT22;18929;48.008;10.882;2024-02-26T06:37:12;4.40;99.90
32476;DHT22;18929;48.008;10.882;2024-02-26T06:39:41;4.50;99.90
32476;DHT22;18929;48.008;10.882;2024-02-26T06:42:20;4.40;99.90
32476;DHT22;18929;48.008;10.882;2024-02-26T06:44:47;4.70;99.90
32476;DHT22;18929;48.008;10.882;2024-02-26T06:47:14;4.70;99.90
32476;DHT22;18929;48.008;10.882;2024-02-26T06:49:41;4.80;99.90
32476;DHT22;18929;48.008;10.882;2024-02-26T06:52:07;4.40;99.90
32476;DHT22;18929;48.008;10.882;2024-02-26T06:54:36;4.30;99.90
32476;DHT22;18929;48.008;10.882;2024-02-26T06:57:03;4.40;99.90
32476;DHT22;18929;48.008;10.882;2024-02-26T06:59:30;4.40;99.90
32476;DHT22;18929;48.008;10.882;2024-02-26T07:01:57;4.60;99.90
32476;DHT22;18929;48.008;10.882;2024-02-26T07:04:25;4.60;99.90
32476;DHT22;18929;48.008;10.882;2024-02-26T07:06:52;4.80;99.90
32476;DHT22;18929;48.008;10.882;2024-02-26T07:09:19;5.20;99.90
32476;DHT22;18929;48.008;10.882;2024-02-26T07:11:47;5.20;99.90
32476;DHT22;18929;48.008;10.882;2024-02-26T07:14:14;5.40;99.90
32476;DHT22;18929;48.008;10.882;2024-02-26T07:16:41;5.60;99.90
32476;DHT22;18929;48.008;10.882;2024-02-26T07:19:08;5.10;99.90
32476;DHT22;18929;48.008;10.882;2024-02-26T07:21:35;5.20;99.90
32476;DHT22;18929;48.008;10.882;2024-02-26T07:24:02;5.20;99.90
32476;DHT22;18929;48.008;10.882;2024-02-26T07:26:29;5.20;99.90
32476;DHT22;18929;48.008;10.882;2024-02-26T07:31:35;5.50;99.90
32476;DHT22;18929;48.008;10.882;2024-02-26T07:34:02;5.80;99.90
32476;DHT22;18929;48.008;10.882;2024-02-26T07:36:29;5.50;99.90
32476;DHT22;18929;48.008;10.882;2024-02-26T07:38:56;5.20;99.90
32476;DHT22;18929;48.008;10.882;2024-02-26T07:41:23;4.50;99.90
32476;DHT22;18929;48.008;10.882;2024-02-26T07:43:51;4.90;99.90
32476;DHT22;18929;48.008;10.882;2024-02-26T07:46:18;5.20;99.90
32476;DHT22;18929;48.008;10.882;2024-02-26T07:48:46;5.40;99.90
32476;DHT22;18929;48.008;10.882;2024-02-26T07:51:13;5.80;99.90
32476;DHT22;18929;48.008;10.882;2024-02-26T07:53:40;5.80;99.90
32476;DHT22;18929;48.008;10.882;2024-02-26T07:58:38;5.40;99.90
32476;DHT22;18929;48.008;10.882;2024-02-26T08:01:05;5.70;99.90
32476;DHT22;18929;48.008;10.882;2024-02-26T08:03:32;5.90;99.90
32476;DHT22;18929;48.008;10.882;2024-02-26T08:06:01;6.00;99.90
32476;DHT22;18929;48.008;10.882;2024-02-26T08:08:27;6.20;99.90
32476;DHT22;18929;48.008;10.882;2024-02-26T08:10:54;6.40;99.90
32476;DHT22;18929;48.008;10.882;2024-02-26T08:13:21;6.30;99.90
32476;DHT22;18929;48.008;10.882;2024-02-26T08:15:48;6.50;99.90
32476;DHT22;18929;48.008;10.882;2024-02-26T08:18:17;6.50;99.90
32476;DHT22;18929;48.008;10.882;2024-02-26T08:20:45;6.10;99.90
32476;DHT22;18929;48.008;10.882;2024-02-26T08:23:15;6.30;99.90
32476;DHT22;18929;48.008;10.882;2024-02-26T08:25:42;6.40;99.90
32476;DHT22;18929;48.008;10.882;2024-02-26T08:28:09;6.60;99.90
32476;DHT22;18929;48.008;10.882;2024-02-26T08:30:38;6.50;99.90
32476;DHT22;18929;48.008;10.882;2024-02-26T08:33:05;6.80;99.90
32476;DHT22;18929;48.008;10.882;2024-02-26T08:35:32;7.00;99.90
32476;DHT22;18929;48.008;10.882;2024-02-26T08:37:59;6.70;99.90
32476;DHT22;18929;48.008;10.882;2024-02-26T08:40:27;6.30;99.90
32476;DHT22;18929;48.008;10.882;2024-02-26T08:42:54;6.40;99.90
32476;DHT22;18929;48.008;10.882;2024-02-26T08:45:22;7.00;99.90
32476;DHT22;18929;48.008;10.882;2024-02-26T08:47:48;7.30;99.90
32476;DHT22;18929;48.008;10.882;2024-02-26T08:50:15;7.60;99.90
32476;DHT22;18929;48.008;10.882;2024-02-26T08:55:16;7.20;99.90
32476;DHT22;18929;48.008;10.882;2024-02-26T08:57:44;7.20;99.90
32476;DHT22;18929;48.008;10.882;2024-02-26T09:00:11;7.30;99.90
32476;DHT22;18929;48.008;10.882;2024-02-26T09:02:38;7.40;99.90
32476;DHT22;18929;48.008;10.882;2024-02-26T09:05:05;7.40;99.90
32476;DHT22;18929;48.008;10.882;2024-02-26T09:07:32;7.80;99.90
32476;DHT22;18929;48.008;10.882;2024-02-26T09:09:59;8.10;99.90
32476;DHT22;18929;48.008;10.882;2024-02-26T09:12:26;8.30;99.90
32476;DHT22;18929;48.008;10.882;2024-02-26T09:14:54;8.40;99.90
32476;DHT22;18929;48.008;10.882;2024-02-26T09:17:22;8.20;99.90
32476;DHT22;18929;48.008;10.882;2024-02-26T09:19:49;7.80;99.90
32476;DHT22;18929;48.008;10.882;2024-02-26T09:22:16;8.40;99.90
32476;DHT22;18929;48.008;10.882;2024-02-26T09:24:43;9.00;99.90
32476;DHT22;18929;48.008;10.882;2024-02-26T09:27:10;8.90;99.90
32476;DHT22;18929;48.008;10.882;2024-02-26T09:29:37;8.70;99.90
32476;DHT22;18929;48.008;10.882;2024-02-26T09:32:05;9.00;99.90
32476;DHT22;18929;48.008;10.882;2024-02-26T09:34:32;9.40;99.90
32476;DHT22;18929;48.008;10.882;2024-02-26T09:36:59;9.60;99.90
32476;DHT22;18929;48.008;10.882;2024-02-26T09:39:27;9.60;99.90
32476;DHT22;18929;48.008;10.882;2024-02-26T09:41:53;9.80;99.90
32476;DHT22;18929;48.008;10.882;2024-02-26T09:44:21;9.80;99.90
32476;DHT22;18929;48.008;10.882;2024-02-26T09:46:48;9.90;99.90
32476;DHT22;18929;48.008;10.882;2024-02-26T09:49:17;9.70;99.90
32476;DHT22;18929;48.008;10.882;2024-02-26T09:51:45;9.70;99.90
32476;DHT22;18929;48.008;10.882;2024-02-26T09:54:12;9.90;99.90
32476;DHT22;18929;48.008;10.882;2024-02-26T09:56:39;10.00;99.90
32476;DHT22;18929;48.008;10.882;2024-02-26T09:59:09;10.00;99.90
32476;DHT22;18929;48.008;10.882;2024-02-26T10:01:37;10.00;99.90
32476;DHT22;18929;48.008;10.882;2024-02-26T10:04:05;9.90;99.90
32476;DHT22;18929;48.008;10.882;2024-02-26T10:06:34;10.00;99.90
32476;DHT22;18929;48.008;10.882;2024-02-26T10:09:03;10.10;99.90
32476;DHT22;18929;48.008;10.882;2024-02-26T10:11:32;10.20;99.90
32476;DHT22;18929;48.008;10.882;2024-02-26T10:13:59;10.20;99.90
32476;DHT22;18929;48.008;10.882;2024-02-26T10:16:26;10.30;99.90
32476;DHT22;18929;48.008;10.882;2024-02-26T10:18:53;10.40;99.90
32476;DHT22;18929;48.008;10.882;2024-02-26T10:21:20;10.40;99.90
32476;DHT22;18929;48.008;10.882;2024-02-26T10:23:49;9.90;99.90
32476;DHT22;18929;48.008;10.882;2024-02-26T10:26:16;9.90;99.90
32476;DHT22;18929;48.008;10.882;2024-02-26T10:28:44;10.00;99.90
32476;DHT22;18929;48.008;10.882;2024-02-26T10:31:11;10.30;99.90
32476;DHT22;18929;48.008;10.882;2024-02-26T10:33:40;10.70;99.90
32476;DHT22;18929;48.008;10.882;2024-02-26T10:36:07;10.90;99.90
32476;DHT22;18929;48.008;10.882;2024-02-26T10:38:35;11.10;99.90
32476;DHT22;18929;48.008;10.882;2024-02-26T10:41:04;11.10;99.90
32476;DHT22;18929;48.008;10.882;2024-02-26T10:43:30;11.20;99.90
32476;DHT22;18929;48.008;10.882;2024-02-26T10:45:57;11.20;99.90
32476;DHT22;18929;48.008;10.882;2024-02-26T10:48:24;11.00;99.90
32476;DHT22;18929;48.008;10.882;2024-02-26T10:50:51;11.20;99.90
32476;DHT22;18929;48.008;10.882;2024-02-26T10:53:20;11.10;99.90
32476;DHT22;18929;48.008;10.882;2024-02-26T10:55:48;11.00;99.90
32476;DHT22;18929;48.008;10.882;2024-02-26T10:58:16;11.10;99.90
32476;DHT22;18929;48.008;10.882;2024-02-26T11:00:43;11.30;99.90
32476;DHT22;18929;48.008;10.882;2024-02-26T11:03:10;11.50;99.90
32476;DHT22;18929;48.008;10.882;2024-02-26T11:05:39;11.60;99.90
32476;DHT22;18929;48.008;10.882;2024-02-26T11:08:06;11.30;99.90
32476;DHT22;18929;48.008;10.882;2024-02-26T11:10:34;11.60;99.90
32476;DHT22;18929;48.008;10.882;2024-02-26T11:13:01;11.60;99.90
32476;DHT22;18929;48.008;10.882;2024-02-26T11:15:29;11.40;99.90
32476;DHT22;18929;48.008;10.882;2024-02-26T11:17:58;11.60;99.90
32476;DHT22;18929;48.008;10.882;2024-02-26T11:20:25;11.80;99.90
32476;DHT22;18929;48.008;10.882;2024-02-26T11:22:54;11.80;99.90
32476;DHT22;18929;48.008;10.882;2024-02-26T11:25:21;11.80;99.90
32476;DHT22;18929;48.008;10.882;2024-02-26T11:27:49;11.60;99.90
32476;DHT22;18929;48.008;10.882;2024-02-26T11:30:17;11.70;99.90
32476;DHT22;18929;48.008;10.882;2024-02-26T11:32:46;11.00;99.90
32476;DHT22;18929;48.008;10.882;2024-02-26T11:35:13;11.50;99.90
32476;DHT22;18929;48.008;10.882;2024-02-26T11:37:51;11.90;99.90
32476;DHT22;18929;48.008;10.882;2024-02-26T11:40:18;11.80;99.90
32476;DHT22;18929;48.008;10.882;2024-02-26T11:42:45;12.00;99.90
32476;DHT22;18929;48.008;10.882;2024-02-26T11:47:57;11.50;99.90
32476;DHT22;18929;48.008;10.882;2024-02-26T11:50:33;11.50;99.90
32476;DHT22;18929;48.008;10.882;2024-02-26T11:53:20;11.70;99.90
32476;DHT22;18929;48.008;10.882;2024-02-26T11:55:47;11.80;99.90
32476;DHT22;18929;48.008;10.882;2024-02-26T11:58:14;11.60;99.90
32476;DHT22;18929;48.008;10.882;2024-02-26T12:00:41;11.90;99.90
32476;DHT22;18929;48.008;10.882;2024-02-26T12:03:09;11.50;99.90
32476;DHT22;18929;48.008;10.882;2024-02-26T12:05:37;11.70;99.90
32476;DHT22;18929;48.008;10.882;2024-02-26T12:08:06;12.20;99.90
32476;DHT22;18929;48.008;10.882;2024-02-26T12:10:34;12.30;99.90
32476;DHT22;18929;48.008;10.882;2024-02-26T12:13:05;12.30;99.90
32476;DHT22;18929;48.008;10.882;2024-02-26T12:15:33;12.20;99.90
32476;DHT22;18929;48.008;10.882;2024-02-26T12:18:01;12.30;99.90
32476;DHT22;18929;48.008;10.882;2024-02-26T12:20:29;12.50;99.90
32476;DHT22;18929;48.008;10.882;2024-02-26T12:22:56;12.30;99.90
32476;DHT22;18929;48.008;10.882;2024-02-26T12:25:24;11.90;99.90
32476;DHT22;18929;48.008;10.882;2024-02-26T12:27:51;11.90;99.90
32476;DHT22;18929;48.008;10.882;2024-02-26T12:30:18;11.90;99.90
32476;DHT22;18929;48.008;10.882;2024-02-26T12:32:45;12.10;99.90
32476;DHT22;18929;48.008;10.882;2024-02-26T12:35:13;12.30;99.90
32476;DHT22;18929;48.008;10.882;2024-02-26T12:37:42;12.50;99.90
32476;DHT22;18929;48.008;10.882;2024-02-26T12:40:09;12.50;99.90
32476;DHT22;18929;48.008;10.882;2024-02-26T12:42:36;12.60;99.90
32476;DHT22;18929;48.008;10.882;2024-02-26T12:45:06;12.30;99.90
32476;DHT22;18929;48.008;10.882;2024-02-26T12:47:35;12.30;99.90
32476;DHT22;18929;48.008;10.882;2024-02-26T12:50:02;11.70;99.90
32476;DHT22;18929;48.008;10.882;2024-02-26T12:52:30;11.70;99.90
32476;DHT22;18929;48.008;10.882;2024-02-26T12:54:58;11.60;99.90
32476;DHT22;18929;48.008;10.882;2024-02-26T12:57:25;10.40;99.90
32476;DHT22;18929;48.008;10.882;2024-02-26T12:59:54;10.00;99.90
32476;DHT22;18929;48.008;10.882;2024-02-26T13:02:21;10.90;99.90
32476;DHT22;18929;48.008;10.882;2024-02-26T13:04:48;10.80;99.90
32476;DHT22;18929;48.008;10.882;2024-02-26T13:07:15;10.90;99.90
32476;DHT22;18929;48.008;10.882;2024-02-26T13:09:42;11.30;99.90
32476;DHT22;18929;48.008;10.882;2024-02-26T13:12:10;11.20;99.90
32476;DHT22;18929;48.008;10.882;2024-02-26T13:14:38;11.30;99.90
32476;DHT22;18929;48.008;10.882;2024-02-26T13:17:05;11.50;99.90
32476;DHT22;18929;48.008;10.882;2024-02-26T13:19:32;11.70;99.90
32476;DHT22;18929;48.008;10.882;2024-02-26T13:22:03;11.80;99.90
32476;DHT22;18929;48.008;10.882;2024-02-26T13:24:30;12.00;99.90
32476;DHT22;18929;48.008;10.882;2024-02-26T13:26:57;11.90;99.90
32476;DHT22;18929;48.008;10.882;2024-02-26T13:29:25;11.80;99.90
32476;DHT22;18929;48.008;10.882;2024-02-26T13:31:55;12.10;99.90
32476;DHT22;18929;48.008;10.882;2024-02-26T13:34:23;12.00;99.90
32476;DHT22;18929;48.008;10.882;2024-02-26T13:36:52;12.00;99.90
32476;DHT22;18929;48.008;10.882;2024-02-26T13:39:22;11.90;99.90
32476;DHT22;18929;48.008;10.882;2024-02-26T13:41:50;11.60;99.90
32476;DHT22;18929;48.008;10.882;2024-02-26T13:44:17;11.70;99.90
32476;DHT22;18929;48.008;10.882;2024-02-26T13:46:45;11.50;99.90
32476;DHT22;18929;48.008;10.882;2024-02-26T13:49:12;11.60;99.90
32476;DHT22;18929;48.008;10.882;2024-02-26T13:51:38;11.50;99.90
32476;DHT22;18929;48.008;10.882;2024-02-26T13:54:05;11.60;99.90
32476;DHT22;18929;48.008;10.882;2024-02-26T13:56:32;11.60;99.90
32476;DHT22;18929;48.008;10.882;2024-02-26T13:58:59;11.80;99.90
32476;DHT22;18929;48.008;10.882;2024-02-26T14:01:26;11.90;99.90
32476;DHT22;18929;48.008;10.882;2024-02-26T14:03:55;11.60;99.90
32476;DHT22;18929;48.008;10.882;2024-02-26T14:06:22;11.60;99.90
32476;DHT22;18929;48.008;10.882;2024-02-26T14:08:49;11.70;99.90
32476;DHT22;18929;48.008;10.882;2024-02-26T14:11:16;11.70;99.90
32476;DHT22;18929;48.008;10.882;2024-02-26T14:13:43;11.80;99.90
32476;DHT22;18929;48.008;10.882;2024-02-26T14:16:12;12.00;99.90
32476;DHT22;18929;48.008;10.882;2024-02-26T14:18:39;12.00;99.90
32476;DHT22;18929;48.008;10.882;2024-02-26T14:21:07;12.10;99.90
32476;DHT22;18929;48.008;10.882;2024-02-26T14:23:40;12.20;99.90
32476;DHT22;18929;48.008;10.882;2024-02-26T14:26:09;12.20;99.90
32476;DHT22;18929;48.008;10.882;2024-02-26T14:28:36;12.20;99.90
32476;DHT22;18929;48.008;10.882;2024-02-26T14:31:05;12.30;99.90
32476;DHT22;18929;48.008;10.882;2024-02-26T14:33:32;12.20;99.90
32476;DHT22;18929;48.008;10.882;2024-02-26T14:35:59;12.20;99.90
32476;DHT22;18929;48.008;10.882;2024-02-26T14:38:28;12.00;99.90
32476;DHT22;18929;48.008;10.882;2024-02-26T14:40:56;11.60;99.90
32476;DHT22;18929;48.008;10.882;2024-02-26T14:43:24;12.00;99.90
32476;DHT22;18929;48.008;10.882;2024-02-26T14:45:51;12.20;99.90
32476;DHT22;18929;48.008;10.882;2024-02-26T14:48:18;12.10;99.90
32476;DHT22;18929;48.008;10.882;2024-02-26T14:50:45;12.00;99.90
32476;DHT22;18929;48.008;10.882;2024-02-26T14:53:11;11.90;99.90
32476;DHT22;18929;48.008;10.882;2024-02-26T14:55:40;12.10;99.90
32476;DHT22;18929;48.008;10.882;2024-02-26T14:58:07;12.10;99.90
32476;DHT22;18929;48.008;10.882;2024-02-26T15:00:36;12.10;99.90
32476;DHT22;18929;48.008;10.882;2024-02-26T15:03:03;12.00;99.90
32476;DHT22;18929;48.008;10.882;2024-02-26T15:05:30;11.90;99.90
32476;DHT22;18929;48.008;10.882;2024-02-26T15:11:02;12.00;99.90
32476;DHT22;18929;48.008;10.882;2024-02-26T15:13:29;11.50;99.90
32476;DHT22;18929;48.008;10.882;2024-02-26T15:15:56;11.40;99.90
32476;DHT22;18929;48.008;10.882;2024-02-26T15:18:23;11.30;99.90
32476;DHT22;18929;48.008;10.882;2024-02-26T15:20:49;11.60;99.90
32476;DHT22;18929;48.008;10.882;2024-02-26T15:23:16;11.80;99.90
32476;DHT22;18929;48.008;10.882;2024-02-26T15:25:46;11.80;99.90
32476;DHT22;18929;48.008;10.882;2024-02-26T15:28:14;11.70;99.90
32476;DHT22;18929;48.008;10.882;2024-02-26T15:30:41;11.50;99.90
32476;DHT22;18929;48.008;10.882;2024-02-26T15:33:08;11.70;99.90
32476;DHT22;18929;48.008;10.882;2024-02-26T15:35:35;11.40;99.90
32476;DHT22;18929;48.008;10.882;2024-02-26T15:38:05;11.30;99.90
32476;DHT22;18929;48.008;10.882;2024-02-26T15:40:32;11.00;99.90
32476;DHT22;18929;48.008;10.882;2024-02-26T15:42:58;11.10;99.90
32476;DHT22;18929;48.008;10.882;2024-02-26T15:45:27;11.20;99.90
32476;DHT22;18929;48.008;10.882;2024-02-26T15:47:57;11.20;99.90